sensor_id;sensor_type;location;lat;lon;timestamp;P1;durP1;ratioP1;P2;durP2;ratioP2
69323;SDS011;56470;47.350;8.718;2023-05-16T00:00:12;4.75;;;2.50;;
69323;SDS011;56470;47.350;8.718;2023-05-16T00:02:38;4.78;;;2.63;;
69323;SDS011;56470;47.350;8.718;2023-05-16T00:05:04;5.30;;;3.10;;
69323;SDS011;56470;47.350;8.718;2023-05-16T00:07:31;6.85;;;2.83;;
69323;SDS011;56470;47.350;8.718;2023-05-16T00:09:57;5.13;;;2.58;;
69323;SDS011;56470;47.350;8.718;2023-05-16T00:12:23;4.30;;;2.40;;
69323;SDS011;56470;47.350;8.718;2023-05-16T00:14:49;4.80;;;2.55;;
69323;SDS011;56470;47.350;8.718;2023-05-16T00:17:16;5.10;;;2.63;;
69323;SDS011;56470;47.350;8.718;2023-05-16T00:19:44;5.80;;;3.17;;
69323;SDS011;56470;47.350;8.718;2023-05-16T00:22:13;5.27;;;2.53;;
69323;SDS011;56470;47.350;8.718;2023-05-16T00:24:39;4.82;;;2.63;;
69323;SDS011;56470;47.350;8.718;2023-05-16T00:27:05;8.50;;;2.97;;
69323;SDS011;56470;47.350;8.718;2023-05-16T00:29:30;4.73;;;2.77;;
69323;SDS011;56470;47.350;8.718;2023-05-16T00:31:56;5.80;;;2.80;;
69323;SDS011;56470;47.350;8.718;2023-05-16T00:34:24;5.00;;;2.60;;
69323;SDS011;56470;47.350;8.718;2023-05-16T00:36:49;5.87;;;3.07;;
69323;SDS011;56470;47.350;8.718;2023-05-16T00:39:15;5.53;;;2.40;;
69323;SDS011;56470;47.350;8.718;2023-05-16T00:41:40;5.00;;;2.43;;
69323;SDS011;56470;47.350;8.718;2023-05-16T00:44:06;5.00;;;2.33;;
69323;SDS011;56470;47.350;8.718;2023-05-16T00:46:32;6.43;;;3.40;;
69323;SDS011;56470;47.350;8.718;2023-05-16T00:49:00;4.90;;;2.47;;
69323;SDS011;56470;47.350;8.718;2023-05-16T00:51:26;4.22;;;2.40;;
69323;SDS011;56470;47.350;8.718;2023-05-16T00:53:51;6.40;;;2.93;;
69323;SDS011;56470;47.350;8.718;2023-05-16T00:56:18;6.18;;;3.20;;
69323;SDS011;56470;47.350;8.718;2023-05-16T00:58:45;6.05;;;3.13;;
69323;SDS011;56470;47.350;8.718;2023-05-16T01:01:10;6.87;;;3.60;;
69323;SDS011;56470;47.350;8.718;2023-05-16T01:03:36;6.20;;;2.83;;
69323;SDS011;56470;47.350;8.718;2023-05-16T01:06:02;6.93;;;3.28;;
69323;SDS011;56470;47.350;8.718;2023-05-16T01:08:28;7.03;;;3.57;;
69323;SDS011;56470;47.350;8.718;2023-05-16T01:16:57;6.95;;;3.20;;
69323;SDS011;56470;47.350;8.718;2023-05-16T01:21:59;5.72;;;3.08;;
69323;SDS011;56470;47.350;8.718;2023-05-16T01:24:33;6.43;;;3.47;;
69323;SDS011;56470;47.350;8.718;2023-05-16T01:27:07;7.00;;;3.90;;
69323;SDS011;56470;47.350;8.718;2023-05-16T01:29:34;8.02;;;3.95;;
69323;SDS011;56470;47.350;8.718;2023-05-16T01:32:00;6.82;;;3.58;;
69323;SDS011;56470;47.350;8.718;2023-05-16T01:34:25;6.50;;;3.47;;
69323;SDS011;56470;47.350;8.718;2023-05-16T01:39:44;8.77;;;3.47;;
69323;SDS011;56470;47.350;8.718;2023-05-16T01:42:16;7.30;;;4.10;;
69323;SDS011;56470;47.350;8.718;2023-05-16T01:47:18;9.30;;;4.03;;
69323;SDS011;56470;47.350;8.718;2023-05-16T01:52:27;6.40;;;3.22;;
69323;SDS011;56470;47.350;8.718;2023-05-16T01:54:58;6.90;;;3.37;;
69323;SDS011;56470;47.350;8.718;2023-05-16T01:57:24;9.07;;;4.38;;
69323;SDS011;56470;47.350;8.718;2023-05-16T01:59:52;7.38;;;4.20;;
69323;SDS011;56470;47.350;8.718;2023-05-16T02:02:18;8.47;;;4.17;;
69323;SDS011;56470;47.350;8.718;2023-05-16T02:04:43;8.73;;;4.45;;
69323;SDS011;56470;47.350;8.718;2023-05-16T02:07:09;8.43;;;4.47;;
69323;SDS011;56470;47.350;8.718;2023-05-16T02:09:35;8.30;;;4.80;;
69323;SDS011;56470;47.350;8.718;2023-05-16T02:12:00;8.63;;;4.50;;
69323;SDS011;56470;47.350;8.718;2023-05-16T02:14:26;8.88;;;4.53;;
69323;SDS011;56470;47.350;8.718;2023-05-16T02:16:51;8.33;;;4.37;;
69323;SDS011;56470;47.350;8.718;2023-05-16T02:19:17;7.43;;;4.20;;
69323;SDS011;56470;47.350;8.718;2023-05-16T02:21:42;8.90;;;4.23;;
69323;SDS011;56470;47.350;8.718;2023-05-16T02:24:07;7.55;;;4.43;;
69323;SDS011;56470;47.350;8.718;2023-05-16T02:26:33;8.47;;;4.33;;
69323;SDS011;56470;47.350;8.718;2023-05-16T02:28:58;9.10;;;4.40;;
69323;SDS011;56470;47.350;8.718;2023-05-16T02:31:27;8.83;;;4.73;;
69323;SDS011;56470;47.350;8.718;2023-05-16T02:33:54;7.50;;;4.30;;
69323;SDS011;56470;47.350;8.718;2023-05-16T02:36:19;11.00;;;5.18;;
69323;SDS011;56470;47.350;8.718;2023-05-16T02:38:45;10.00;;;5.10;;
69323;SDS011;56470;47.350;8.718;2023-05-16T02:41:10;10.40;;;5.03;;
69323;SDS011;56470;47.350;8.718;2023-05-16T02:43:36;9.98;;;5.20;;
69323;SDS011;56470;47.350;8.718;2023-05-16T02:46:03;10.23;;;5.23;;
69323;SDS011;56470;47.350;8.718;2023-05-16T02:48:29;9.87;;;4.60;;
69323;SDS011;56470;47.350;8.718;2023-05-16T02:50:54;11.43;;;5.47;;
69323;SDS011;56470;47.350;8.718;2023-05-16T02:53:20;9.13;;;4.37;;
69323;SDS011;56470;47.350;8.718;2023-05-16T02:55:45;9.97;;;5.30;;
69323;SDS011;56470;47.350;8.718;2023-05-16T02:58:10;10.13;;;5.17;;
69323;SDS011;56470;47.350;8.718;2023-05-16T03:00:36;10.57;;;5.00;;
69323;SDS011;56470;47.350;8.718;2023-05-16T03:03:01;10.17;;;5.27;;
69323;SDS011;56470;47.350;8.718;2023-05-16T03:05:26;10.20;;;4.87;;
69323;SDS011;56470;47.350;8.718;2023-05-16T03:07:52;11.50;;;5.60;;
69323;SDS011;56470;47.350;8.718;2023-05-16T03:10:17;10.73;;;5.60;;
69323;SDS011;56470;47.350;8.718;2023-05-16T03:12:42;9.93;;;5.10;;
69323;SDS011;56470;47.350;8.718;2023-05-16T03:15:08;13.17;;;5.13;;
69323;SDS011;56470;47.350;8.718;2023-05-16T03:17:34;9.88;;;5.28;;
69323;SDS011;56470;47.350;8.718;2023-05-16T03:19:59;11.50;;;5.33;;
69323;SDS011;56470;47.350;8.718;2023-05-16T03:22:24;10.90;;;5.73;;
69323;SDS011;56470;47.350;8.718;2023-05-16T03:24:50;11.47;;;5.73;;
69323;SDS011;56470;47.350;8.718;2023-05-16T03:27:15;12.63;;;6.65;;
69323;SDS011;56470;47.350;8.718;2023-05-16T03:29:40;9.80;;;5.27;;
69323;SDS011;56470;47.350;8.718;2023-05-16T03:32:06;9.83;;;5.43;;
69323;SDS011;56470;47.350;8.718;2023-05-16T03:34:31;10.03;;;4.67;;
69323;SDS011;56470;47.350;8.718;2023-05-16T03:36:56;10.70;;;5.70;;
69323;SDS011;56470;47.350;8.718;2023-05-16T03:39:22;11.38;;;5.40;;
69323;SDS011;56470;47.350;8.718;2023-05-16T03:41:47;12.13;;;6.87;;
69323;SDS011;56470;47.350;8.718;2023-05-16T03:44:13;10.40;;;4.90;;
69323;SDS011;56470;47.350;8.718;2023-05-16T03:46:38;10.85;;;5.72;;
69323;SDS011;56470;47.350;8.718;2023-05-16T03:49:04;11.20;;;5.73;;
69323;SDS011;56470;47.350;8.718;2023-05-16T03:51:29;11.03;;;5.27;;
69323;SDS011;56470;47.350;8.718;2023-05-16T03:53:55;11.10;;;6.18;;
69323;SDS011;56470;47.350;8.718;2023-05-16T03:56:20;12.03;;;6.33;;
69323;SDS011;56470;47.350;8.718;2023-05-16T03:58:46;13.52;;;6.30;;
69323;SDS011;56470;47.350;8.718;2023-05-16T04:01:12;11.33;;;5.97;;
69323;SDS011;56470;47.350;8.718;2023-05-16T04:03:38;11.00;;;5.90;;
69323;SDS011;56470;47.350;8.718;2023-05-16T04:06:03;11.53;;;6.23;;
69323;SDS011;56470;47.350;8.718;2023-05-16T04:08:29;11.38;;;5.57;;
69323;SDS011;56470;47.350;8.718;2023-05-16T04:10:55;12.13;;;5.68;;
69323;SDS011;56470;47.350;8.718;2023-05-16T04:13:20;10.27;;;5.30;;
69323;SDS011;56470;47.350;8.718;2023-05-16T04:15:46;10.63;;;5.50;;
69323;SDS011;56470;47.350;8.718;2023-05-16T04:18:11;10.57;;;5.07;;
69323;SDS011;56470;47.350;8.718;2023-05-16T04:20:37;10.75;;;4.90;;
69323;SDS011;56470;47.350;8.718;2023-05-16T04:23:02;12.27;;;6.97;;
69323;SDS011;56470;47.350;8.718;2023-05-16T04:25:28;10.63;;;5.57;;
69323;SDS011;56470;47.350;8.718;2023-05-16T04:27:53;10.47;;;5.33;;
69323;SDS011;56470;47.350;8.718;2023-05-16T04:30:18;11.60;;;5.60;;
69323;SDS011;56470;47.350;8.718;2023-05-16T04:32:44;10.03;;;5.10;;
69323;SDS011;56470;47.350;8.718;2023-05-16T04:35:09;10.25;;;5.55;;
69323;SDS011;56470;47.350;8.718;2023-05-16T04:37:35;11.90;;;6.17;;
69323;SDS011;56470;47.350;8.718;2023-05-16T04:40:00;12.43;;;4.93;;
69323;SDS011;56470;47.350;8.718;2023-05-16T04:42:26;9.90;;;5.33;;
69323;SDS011;56470;47.350;8.718;2023-05-16T04:44:51;11.63;;;5.33;;
69323;SDS011;56470;47.350;8.718;2023-05-16T04:47:17;14.77;;;5.75;;
69323;SDS011;56470;47.350;8.718;2023-05-16T04:49:42;9.60;;;5.87;;
69323;SDS011;56470;47.350;8.718;2023-05-16T04:52:07;12.10;;;6.40;;
69323;SDS011;56470;47.350;8.718;2023-05-16T04:54:33;12.18;;;5.97;;
69323;SDS011;56470;47.350;8.718;2023-05-16T04:56:59;15.30;;;6.40;;
69323;SDS011;56470;47.350;8.718;2023-05-16T04:59:25;9.63;;;5.45;;
69323;SDS011;56470;47.350;8.718;2023-05-16T05:01:51;12.23;;;5.47;;
69323;SDS011;56470;47.350;8.718;2023-05-16T05:04:16;10.07;;;5.07;;
69323;SDS011;56470;47.350;8.718;2023-05-16T05:06:42;12.07;;;5.37;;
69323;SDS011;56470;47.350;8.718;2023-05-16T05:09:07;11.77;;;5.60;;
69323;SDS011;56470;47.350;8.718;2023-05-16T05:11:33;10.80;;;5.22;;
69323;SDS011;56470;47.350;8.718;2023-05-16T05:13:59;9.80;;;5.87;;
69323;SDS011;56470;47.350;8.718;2023-05-16T05:16:24;12.38;;;5.22;;
69323;SDS011;56470;47.350;8.718;2023-05-16T05:18:50;8.93;;;4.77;;
69323;SDS011;56470;47.350;8.718;2023-05-16T05:21:15;12.60;;;5.93;;
69323;SDS011;56470;47.350;8.718;2023-05-16T05:23:41;10.73;;;5.30;;
69323;SDS011;56470;47.350;8.718;2023-05-16T05:26:06;10.00;;;5.47;;
69323;SDS011;56470;47.350;8.718;2023-05-16T16:37:52;3.60;;;1.65;;
69323;SDS011;56470;47.350;8.718;2023-05-16T16:40:18;1.80;;;1.40;;
69323;SDS011;56470;47.350;8.718;2023-05-16T16:43:30;3.47;;;1.98;;
69323;SDS011;56470;47.350;8.718;2023-05-16T17:00:28;2.67;;;1.35;;
69323;SDS011;56470;47.350;8.718;2023-05-16T17:03:29;2.45;;;1.67;;
69323;SDS011;56470;47.350;8.718;2023-05-16T17:14:00;3.08;;;1.50;;
69323;SDS011;56470;47.350;8.718;2023-05-16T17:16:26;2.63;;;1.42;;
69323;SDS011;56470;47.350;8.718;2023-05-16T17:18:54;5.57;;;1.75;;
69323;SDS011;56470;47.350;8.718;2023-05-16T17:21:20;3.30;;;1.70;;
69323;SDS011;56470;47.350;8.718;2023-05-16T17:23:46;3.30;;;1.67;;
69323;SDS011;56470;47.350;8.718;2023-05-16T17:26:11;3.50;;;1.93;;
69323;SDS011;56470;47.350;8.718;2023-05-16T17:28:37;2.90;;;1.30;;
69323;SDS011;56470;47.350;8.718;2023-05-16T20:51:38;5.18;;;2.10;;
69323;SDS011;56470;47.350;8.718;2023-05-16T20:54:03;6.70;;;3.33;;
69323;SDS011;56470;47.350;8.718;2023-05-16T20:56:29;6.73;;;2.63;;
69323;SDS011;56470;47.350;8.718;2023-05-16T20:58:54;4.30;;;2.72;;
69323;SDS011;56470;47.350;8.718;2023-05-16T21:01:19;3.83;;;2.50;;
69323;SDS011;56470;47.350;8.718;2023-05-16T21:03:45;6.23;;;2.40;;
69323;SDS011;56470;47.350;8.718;2023-05-16T21:06:10;4.57;;;2.40;;
69323;SDS011;56470;47.350;8.718;2023-05-16T21:08:35;5.33;;;2.87;;
69323;SDS011;56470;47.350;8.718;2023-05-16T21:11:01;10.47;;;3.03;;
69323;SDS011;56470;47.350;8.718;2023-05-16T21:13:26;4.40;;;2.50;;
69323;SDS011;56470;47.350;8.718;2023-05-16T21:15:52;6.40;;;2.63;;
69323;SDS011;56470;47.350;8.718;2023-05-16T21:18:18;4.40;;;2.60;;
69323;SDS011;56470;47.350;8.718;2023-05-16T21:20:44;5.17;;;2.77;;
69323;SDS011;56470;47.350;8.718;2023-05-16T21:23:09;6.45;;;2.70;;
69323;SDS011;56470;47.350;8.718;2023-05-16T21:25:34;4.50;;;2.40;;
69323;SDS011;56470;47.350;8.718;2023-05-16T21:28:00;4.80;;;2.80;;
69323;SDS011;56470;47.350;8.718;2023-05-16T21:30:28;5.00;;;2.45;;
69323;SDS011;56470;47.350;8.718;2023-05-16T21:32:53;4.83;;;2.30;;
69323;SDS011;56470;47.350;8.718;2023-05-16T21:35:19;5.23;;;2.93;;
69323;SDS011;56470;47.350;8.718;2023-05-16T21:37:44;5.20;;;2.60;;
69323;SDS011;56470;47.350;8.718;2023-05-16T21:40:10;4.63;;;2.53;;
69323;SDS011;56470;47.350;8.718;2023-05-16T21:42:38;5.32;;;2.50;;
69323;SDS011;56470;47.350;8.718;2023-05-16T21:45:04;5.37;;;2.20;;
69323;SDS011;56470;47.350;8.718;2023-05-16T21:47:29;4.87;;;2.80;;
69323;SDS011;56470;47.350;8.718;2023-05-16T21:49:55;5.20;;;2.37;;
69323;SDS011;56470;47.350;8.718;2023-05-16T21:52:20;6.73;;;2.50;;
69323;SDS011;56470;47.350;8.718;2023-05-16T21:54:45;4.73;;;2.37;;
69323;SDS011;56470;47.350;8.718;2023-05-16T21:57:15;5.30;;;2.25;;
69323;SDS011;56470;47.350;8.718;2023-05-16T21:59:40;6.67;;;2.37;;
69323;SDS011;56470;47.350;8.718;2023-05-16T22:02:06;5.23;;;2.80;;
69323;SDS011;56470;47.350;8.718;2023-05-16T22:04:32;5.90;;;2.63;;
69323;SDS011;56470;47.350;8.718;2023-05-16T22:06:57;4.90;;;2.30;;
69323;SDS011;56470;47.350;8.718;2023-05-16T22:09:23;5.43;;;2.33;;
69323;SDS011;56470;47.350;8.718;2023-05-16T22:11:48;8.43;;;2.50;;
69323;SDS011;56470;47.350;8.718;2023-05-16T22:14:13;3.73;;;2.37;;
69323;SDS011;56470;47.350;8.718;2023-05-16T22:16:39;8.17;;;2.70;;
69323;SDS011;56470;47.350;8.718;2023-05-16T22:19:04;3.73;;;1.70;;
69323;SDS011;56470;47.350;8.718;2023-05-16T22:21:30;6.07;;;2.47;;
69323;SDS011;56470;47.350;8.718;2023-05-16T22:23:56;4.57;;;2.37;;
69323;SDS011;56470;47.350;8.718;2023-05-16T22:26:21;6.75;;;2.55;;
69323;SDS011;56470;47.350;8.718;2023-05-16T22:28:46;8.57;;;2.70;;
69323;SDS011;56470;47.350;8.718;2023-05-16T22:31:12;6.37;;;2.43;;
69323;SDS011;56470;47.350;8.718;2023-05-16T22:33:37;4.60;;;2.40;;
69323;SDS011;56470;47.350;8.718;2023-05-16T22:36:02;5.00;;;2.30;;
69323;SDS011;56470;47.350;8.718;2023-05-16T22:38:28;5.03;;;2.40;;
69323;SDS011;56470;47.350;8.718;2023-05-16T22:40:53;4.60;;;2.00;;
69323;SDS011;56470;47.350;8.718;2023-05-16T22:43:19;5.73;;;2.80;;
69323;SDS011;56470;47.350;8.718;2023-05-16T22:45:44;5.90;;;2.37;;
69323;SDS011;56470;47.350;8.718;2023-05-16T22:48:09;5.13;;;2.40;;
69323;SDS011;56470;47.350;8.718;2023-05-16T22:50:35;4.33;;;2.20;;
69323;SDS011;56470;47.350;8.718;2023-05-16T22:53:00;5.20;;;2.27;;
69323;SDS011;56470;47.350;8.718;2023-05-16T22:55:25;6.63;;;2.57;;
69323;SDS011;56470;47.350;8.718;2023-05-16T22:57:51;7.47;;;2.87;;
69323;SDS011;56470;47.350;8.718;2023-05-16T23:00:18;5.57;;;2.67;;
69323;SDS011;56470;47.350;8.718;2023-05-16T23:02:46;6.43;;;2.47;;
69323;SDS011;56470;47.350;8.718;2023-05-16T23:05:11;6.30;;;2.33;;
69323;SDS011;56470;47.350;8.718;2023-05-16T23:07:37;4.17;;;2.53;;
69323;SDS011;56470;47.350;8.718;2023-05-16T23:10:02;5.87;;;2.20;;
69323;SDS011;56470;47.350;8.718;2023-05-16T23:12:28;5.18;;;2.75;;
69323;SDS011;56470;47.350;8.718;2023-05-16T23:14:53;7.07;;;2.23;;
69323;SDS011;56470;47.350;8.718;2023-05-16T23:17:18;4.60;;;2.37;;
69323;SDS011;56470;47.350;8.718;2023-05-16T23:19:44;6.57;;;2.87;;
69323;SDS011;56470;47.350;8.718;2023-05-16T23:22:09;4.23;;;2.50;;
69323;SDS011;56470;47.350;8.718;2023-05-16T23:24:35;5.43;;;2.33;;
69323;SDS011;56470;47.350;8.718;2023-05-16T23:27:00;5.43;;;2.23;;
69323;SDS011;56470;47.350;8.718;2023-05-16T23:29:25;5.53;;;1.80;;
69323;SDS011;56470;47.350;8.718;2023-05-16T23:31:50;6.07;;;2.53;;
69323;SDS011;56470;47.350;8.718;2023-05-16T23:34:16;6.73;;;2.30;;
69323;SDS011;56470;47.350;8.718;2023-05-16T23:36:41;5.07;;;2.37;;
69323;SDS011;56470;47.350;8.718;2023-05-16T23:39:06;4.17;;;2.30;;
69323;SDS011;56470;47.350;8.718;2023-05-16T23:41:32;5.27;;;2.63;;
69323;SDS011;56470;47.350;8.718;2023-05-16T23:43:57;6.55;;;2.55;;
69323;SDS011;56470;47.350;8.718;2023-05-16T23:46:22;5.10;;;2.43;;
69323;SDS011;56470;47.350;8.718;2023-05-16T23:48:48;6.27;;;3.03;;
69323;SDS011;56470;47.350;8.718;2023-05-16T23:51:13;3.80;;;2.23;;
69323;SDS011;56470;47.350;8.718;2023-05-16T23:53:38;5.00;;;2.00;;
69323;SDS011;56470;47.350;8.718;2023-05-16T23:56:04;5.03;;;2.60;;
69323;SDS011;56470;47.350;8.718;2023-05-16T23:58:29;6.10;;;2.27;;
